Russellville, Ohio
Current Conditions -  °F | °C
As of 2:55 PM on Sunday 21 Dec 2014 (Local Time) from KFGX Reporting Station
Clear Clear  
Wind Chill: 30°   Ceiling: Unl
Heat Index: 35°   Visibility: 10mi
Dew Point: 28°   Wind: 6mph
Humidity: 74%   Direction: 70°ENE
Pressure: 30.21"   Gusts: NA
Location:  38.87°N, 83.79°W
Report Text: KFGX 211955Z AUTO 07005KT 10SM CLR 02/M02 A3021 RMK AO2 T00181024
Loading
Personal Weather Stations






























Interactive Weather Map New forecast layout! Learn more

10-Day Weather Forecast

Advertisements
Track Severe Weather on mobile